Oscoda, MI

6:05 PM EDT on April 23, 2018 (GMT -0400)
Oscoda-Wurtsmith

Weather History for KOSC - November, 2012

Change the Weather History Date:

Sunday, November 25, 2012

  Actual Average Record
Temperature  
Mean Temperature 28 °F -  
Max Temperature 32 °F 40 °F 59 °F (2011)
Min Temperature 25 °F 28 °F 8 °F (2005)
Degree Days  
Heating Degree Days 36    
Moisture  
Dew Point 25 °F    
Average Humidity 84    
Maximum Humidity 94    
Minimum Humidity 67    
Precipitation  
Precipitation 0.00 in - - ()
Sea Level Pressure  
Sea Level Pressure 29.83 in    
Wind  
Wind Speed 9 mph (SW)    
Max Wind Speed 16 mph    
Max Gust Speed 17 mph    
Visibility 7 miles    
Events Snow    
Averages and records for this station are not official NWS values.
T = Trace of Precipitation, MM = Missing Value Source: NWS Daily Summary

Daily Weather History Graph

Daily Weather History Graph

Search for Another Location

Airport or City:

Astronomy

Nov. 25, 2012 Rise Set
Actual Time 7:43 AM EST 4:57 PM EST
Civil Twilight 7:10 AM EST 5:30 PM EST
Nautical Twilight 6:34 AM EST 6:06 PM EST
Astronomical Twilight 6:00 AM EST 6:40 PM EST
Moon 3:18 PM EST (11/25) 4:51 AM EST (11/25)
Length of Visible Light 10h 19m
Length of Day
9h 14m
Waxing Gibbous, 93% of the Moon is Illuminated
Nov 25
Waxing Gibbous
Nov 28
Full
Dec 6
Last Quarter
Dec 13
New
Dec 20
First Quarter

Hourly Weather History & Observations

Time (EST) Temp. Windchill Dew Point Humidity Pressure Visibility Wind Dir Wind Speed Gust Speed Precip Events Conditions
12:14 AM 29.3 °F 21.5 °F 19.9 °F 68% 29.95 in 10.0 mi WSW 8.1 mph - N/A   Overcast
12:34 AM 29.3 °F 20.2 °F 19.9 °F 68% 29.94 in 10.0 mi WSW 10.4 mph - N/A   Overcast
12:54 AM 29.1 °F 21.3 °F 19.9 °F 69% 29.93 in 10.0 mi SW 8.1 mph - N/A   Overcast
1:14 AM 29.1 °F 21.3 °F 20.1 °F 69% 29.93 in 10.0 mi WSW 8.1 mph - N/A   Overcast
1:34 AM 28.9 °F 21.9 °F 19.9 °F 69% 29.93 in 10.0 mi WSW 6.9 mph - N/A   Overcast
1:54 AM 29.1 °F 20.6 °F 19.8 °F 68% 29.93 in 10.0 mi WSW 9.2 mph - N/A   Overcast
2:14 AM 29.1 °F 20.0 °F 19.4 °F 67% 29.93 in 10.0 mi WSW 10.4 mph - N/A   Overcast
2:34 AM 28.9 °F 19.8 °F 19.4 °F 68% 29.92 in 10.0 mi WSW 10.4 mph - N/A   Overcast
2:53 AM 28.8 °F 20.9 °F 19.6 °F 69% 29.92 in 10.0 mi WSW 8.1 mph - N/A   Overcast
3:14 AM 28.6 °F 20.7 °F 19.4 °F 69% 29.91 in 10.0 mi West 8.1 mph - N/A   Overcast
3:34 AM 27.5 °F 20.2 °F 21.6 °F 78% 29.90 in 3.0 mi WSW 6.9 mph - N/A Snow Light Snow
3:53 AM 26.6 °F 22.6 °F 22.6 °F 85% 29.89 in 4.0 mi WSW 3.5 mph - N/A Snow Light Snow
4:14 AM 26.6 °F 20.0 °F 23.4 °F 88% 29.89 in 10.0 mi SSW 5.8 mph - N/A   Overcast
4:34 AM 26.4 °F 19.8 °F 23.0 °F 87% 29.88 in 10.0 mi SSW 5.8 mph - N/A   Overcast
4:53 AM 26.2 °F 18.6 °F 23.0 °F 88% 29.87 in 4.0 mi SSW 6.9 mph - N/A Snow Light Snow
5:14 AM 26.1 °F 20.5 °F 23.5 °F 90% 29.87 in 2.0 mi SSW 4.6 mph - N/A Snow Light Snow
5:34 AM 26.1 °F 19.4 °F 23.9 °F 92% 29.86 in 2.0 mi SSW 5.8 mph - N/A Snow Light Snow
5:53 AM 26.1 °F 19.4 °F 23.7 °F 91% 29.86 in 3.0 mi SSW 5.8 mph - N/A Snow Light Snow
6:14 AM 25.7 °F 19.0 °F 23.7 °F 92% 29.84 in 1.5 mi SSW 5.8 mph - N/A Snow Light Snow
6:34 AM 25.7 °F 20.1 °F 23.9 °F 93% 29.84 in 2.0 mi SSW 4.6 mph - N/A Snow Light Snow
6:54 AM 26.1 °F 19.4 °F 24.4 °F 94% 29.83 in 1.8 mi SSW 5.8 mph - N/A Snow Light Snow
7:14 AM 26.2 °F 20.7 °F 24.6 °F 94% 29.82 in 2.0 mi SSW 4.6 mph - N/A Snow Light Snow
7:34 AM 26.6 °F 17.5 °F 25.2 °F 94% 29.82 in 2.0 mi SSW 9.2 mph - N/A Snow Light Snow
7:54 AM 27.1 °F 18.9 °F 25.3 °F 93% 29.82 in 1.5 mi SSW 8.1 mph - N/A Snow Light Snow
8:14 AM 27.1 °F 16.9 °F 25.0 °F 92% 29.81 in 1.2 mi SSW 11.5 mph - N/A Snow Light Snow
8:34 AM 27.3 °F 17.7 °F 24.8 °F 90% 29.81 in 3.0 mi SSW 10.4 mph 16.1 mph N/A Snow Light Snow
8:54 AM 27.5 °F 17.4 °F 24.8 °F 90% 29.80 in 3.0 mi SSW 11.5 mph - N/A Snow Light Snow
9:14 AM 27.5 °F 16.8 °F 25.2 °F 91% 29.80 in 2.0 mi SSW 12.7 mph - N/A Snow Light Snow
9:34 AM 27.5 °F 17.4 °F 24.8 °F 90% 29.80 in 3.0 mi SSW 11.5 mph - N/A Snow Light Snow
9:54 AM 28.0 °F 18.1 °F 25.3 °F 90% 29.79 in 5.0 mi SW 11.5 mph 17.3 mph N/A Snow Light Snow
10:14 AM 28.2 °F 19.5 °F 25.2 °F 88% 29.79 in 3.0 mi SW 9.2 mph - N/A Snow Light Snow
10:34 AM 28.4 °F 18.0 °F 25.3 °F 88% 29.79 in 5.0 mi SW 12.7 mph - N/A Snow Light Snow
10:54 AM 28.4 °F 19.1 °F 25.5 °F 89% 29.78 in 4.0 mi SW 10.4 mph - N/A Snow Light Snow
11:14 AM 28.9 °F 20.4 °F 25.7 °F 88% 29.78 in 5.0 mi SW 9.2 mph - N/A Snow Light Snow
11:33 AM 29.8 °F 20.3 °F 26.1 °F 86% 29.77 in 7.0 mi SW 11.5 mph - N/A Snow Light Snow
11:54 AM 30.2 °F 20.2 °F 26.4 °F 86% 29.77 in 7.0 mi SW 12.7 mph - N/A   Overcast
12:14 PM 30.6 °F 20.2 °F 26.4 °F 85% 29.76 in 10.0 mi WSW 13.8 mph - N/A   Overcast
12:33 PM 30.4 °F 21.0 °F 26.4 °F 85% 29.76 in 10.0 mi SW 11.5 mph - N/A   Overcast
12:54 PM 30.2 °F 20.2 °F 26.4 °F 86% 29.76 in 10.0 mi WSW 12.7 mph - N/A   Overcast
1:14 PM 30.4 °F 20.0 °F 27.1 °F 88% 29.75 in 10.0 mi WSW 13.8 mph - N/A   Overcast
1:33 PM 30.4 °F 20.0 °F 27.1 °F 88% 29.75 in 7.0 mi WSW 13.8 mph - N/A   Overcast
1:54 PM 30.9 °F 19.8 °F 27.0 °F 85% 29.75 in 10.0 mi WSW 16.1 mph - N/A   Overcast
2:14 PM 30.7 °F 20.9 °F 27.1 °F 86% 29.75 in 10.0 mi WSW 12.7 mph - N/A   Overcast
2:33 PM 30.7 °F 22.0 °F 27.3 °F 87% 29.75 in 7.0 mi WSW 10.4 mph - N/A   Overcast
2:54 PM 30.7 °F 20.9 °F 27.3 °F 87% 29.75 in 7.0 mi WSW 12.7 mph - N/A   Overcast
3:14 PM 30.7 °F 20.9 °F 27.5 °F 88% 29.75 in 7.0 mi WSW 12.7 mph - N/A   Overcast
3:33 PM 30.7 °F 23.3 °F 27.3 °F 87% 29.75 in 7.0 mi WSW 8.1 mph - N/A   Overcast
3:54 PM 30.9 °F 21.2 °F 27.3 °F 86% 29.76 in 7.0 mi WSW 12.7 mph - N/A   Overcast
4:14 PM 30.7 °F 21.4 °F 27.3 °F 87% 29.77 in 7.0 mi WSW 11.5 mph - N/A   Overcast
4:33 PM 30.9 °F 22.2 °F 27.3 °F 86% 29.78 in 7.0 mi SW 10.4 mph - N/A   Overcast
4:54 PM 30.7 °F 23.3 °F 27.3 °F 87% 29.79 in 7.0 mi SW 8.1 mph - N/A   Overcast
5:14 PM 30.7 °F 24.1 °F 27.5 °F 88% 29.79 in 10.0 mi SW 6.9 mph - N/A   Overcast
5:34 PM 30.7 °F 24.9 °F 27.5 °F 88% 29.79 in 10.0 mi SW 5.8 mph - N/A   Overcast
5:54 PM 30.7 °F 24.1 °F 27.5 °F 88% 29.80 in 7.0 mi SW 6.9 mph - N/A   Overcast
6:14 PM 30.9 °F 22.2 °F 27.7 °F 88% 29.81 in 7.0 mi SW 10.4 mph - N/A   Overcast
6:34 PM 31.1 °F 23.7 °F 27.5 °F 87% 29.81 in 10.0 mi WSW 8.1 mph - N/A   Overcast
6:54 PM 31.1 °F 23.7 °F 27.5 °F 87% 29.82 in 10.0 mi WSW 8.1 mph - N/A   Overcast
7:14 PM 31.6 °F 22.6 °F 26.8 °F 82% 29.82 in 10.0 mi WSW 11.5 mph - N/A   Overcast
7:34 PM 31.8 °F 25.4 °F 26.4 °F 80% 29.83 in 10.0 mi West 6.9 mph - N/A   Overcast
7:54 PM 32.0 °F 24.2 °F 25.7 °F 78% 29.83 in 10.0 mi West 9.2 mph - N/A   Overcast
8:14 PM 31.8 °F 22.8 °F 25.3 °F 77% 29.84 in 10.0 mi West 11.5 mph 17.3 mph N/A   Overcast
8:34 PM 31.5 °F 22.3 °F 25.3 °F 78% 29.84 in 10.0 mi West 11.5 mph - N/A   Overcast
8:54 PM 31.3 °F 21.6 °F 25.3 °F 79% 29.85 in 10.0 mi West 12.7 mph - N/A   Overcast
9:14 PM 30.6 °F 21.8 °F 25.0 °F 80% 29.85 in 10.0 mi West 10.4 mph - N/A   Mostly Cloudy
9:34 PM 31.3 °F 22.7 °F 25.5 °F 79% 29.86 in 10.0 mi West 10.4 mph - N/A   Overcast
9:54 PM 31.3 °F 23.9 °F 25.5 °F 79% 29.86 in 10.0 mi West 8.1 mph - N/A   Overcast
10:13 PM 29.8 °F 23.0 °F 25.3 °F 83% 29.87 in 10.0 mi WSW 6.9 mph - N/A   Overcast
10:34 PM 30.7 °F 24.1 °F 25.3 °F 80% 29.87 in 10.0 mi WSW 6.9 mph - N/A   Overcast
10:54 PM 30.7 °F 23.3 °F 25.5 °F 81% 29.88 in 10.0 mi WSW 8.1 mph - N/A   Overcast
11:13 PM 31.1 °F 23.1 °F 25.7 °F 80% 29.89 in 10.0 mi SW 9.2 mph - N/A   Overcast
11:34 PM 31.1 °F 23.7 °F 25.7 °F 80% 29.89 in 10.0 mi WSW 8.1 mph - N/A   Overcast
11:54 PM 31.1 °F 23.1 °F 25.7 °F 80% 29.90 in 10.0 mi WSW 9.2 mph - N/A   Overcast